createdAt,value
2023-02-27T00:00:29.143Z,99.35
2023-02-27T00:01:29.096Z,99.35
2023-02-27T00:02:29.225Z,99.35
2023-02-27T00:03:29.138Z,99.35
2023-02-27T00:04:29.075Z,99.25
2023-02-27T00:05:29.066Z,99.25
2023-02-27T00:06:29.062Z,99.35
2023-02-27T00:07:29.034Z,99.25
2023-02-27T00:08:29.178Z,99.15
2023-02-27T00:09:29.054Z,99.04
2023-02-27T00:10:29.020Z,98.94
2023-02-27T00:11:29.490Z,98.83
2023-02-27T00:12:29.065Z,98.77
2023-02-27T00:13:28.984Z,98.88
2023-02-27T00:14:28.974Z,98.77
2023-02-27T00:15:28.974Z,98.94
2023-02-27T00:16:28.976Z,98.94
2023-02-27T00:17:28.959Z,99.04
2023-02-27T00:18:28.934Z,99.04
2023-02-27T00:19:28.913Z,99.08
2023-02-27T00:20:28.936Z,99.19
2023-02-27T00:21:29.040Z,99.19
2023-02-27T00:22:28.883Z,99.19
2023-02-27T00:23:28.883Z,99.08
2023-02-27T00:24:28.863Z,99.19
2023-02-27T00:25:28.871Z,99.08
2023-02-27T00:26:28.852Z,99.19
2023-02-27T00:27:28.833Z,99.08
2023-02-27T00:28:28.854Z,99.08
2023-02-27T00:29:28.854Z,99.04
2023-02-27T00:30:28.869Z,98.94
2023-02-27T00:31:29.288Z,98.94
2023-02-27T00:32:28.808Z,98.94
2023-02-27T00:33:28.781Z,98.88
2023-02-27T00:34:28.761Z,98.77
2023-02-27T00:35:28.767Z,98.77
2023-02-27T00:36:28.752Z,98.67
2023-02-27T00:37:28.751Z,98.67
2023-02-27T00:38:28.731Z,98.77
2023-02-27T00:39:28.725Z,98.88
2023-02-27T00:40:28.698Z,98.77
2023-02-27T00:41:28.968Z,98.77
2023-02-27T00:42:28.668Z,98.98
2023-02-27T00:43:28.678Z,98.98
2023-02-27T00:44:28.656Z,99.08
2023-02-27T00:45:28.641Z,99.19
2023-02-27T00:46:28.701Z,99.30
2023-02-27T00:47:28.651Z,99.30
2023-02-27T00:48:28.620Z,99.19
2023-02-27T00:49:28.605Z,99.19
2023-02-27T00:50:28.598Z,99.30
2023-02-27T00:51:28.834Z,99.51
2023-02-27T00:52:28.578Z,99.51
2023-02-27T00:53:28.597Z,99.30
2023-02-27T00:54:28.545Z,99.08
2023-02-27T00:55:28.536Z,98.98
2023-02-27T00:56:28.535Z,98.77
2023-02-27T00:57:28.580Z,98.77
2023-02-27T00:58:28.533Z,98.67
2023-02-27T00:59:28.507Z,98.56
2023-02-27T01:00:28.602Z,98.56
2023-02-27T01:01:28.696Z,98.35
2023-02-27T01:02:28.530Z,98.61
2023-02-27T01:03:28.508Z,98.82
2023-02-27T01:04:28.447Z,98.82
2023-02-27T01:05:28.441Z,99.03
2023-02-27T01:06:28.442Z,99.34
2023-02-27T01:07:28.425Z,99.34
2023-02-27T01:08:28.428Z,99.44
2023-02-27T01:09:28.425Z,99.44
2023-02-27T01:10:28.416Z,99.44
2023-02-27T01:11:28.446Z,99.44
2023-02-27T01:12:28.373Z,99.55
2023-02-27T01:13:28.370Z,99.70
2023-02-27T01:14:28.388Z,99.70
2023-02-27T01:15:28.358Z,99.80
2023-02-27T01:16:28.367Z,99.91
2023-02-27T01:17:28.341Z,99.99
2023-02-27T01:18:28.316Z,99.99
2023-02-27T01:19:28.303Z,99.99
2023-02-27T01:20:28.315Z,99.99
2023-02-27T01:21:28.519Z,99.99
2023-02-27T01:22:28.289Z,99.99
2023-02-27T01:23:28.269Z,99.99
2023-02-27T01:24:28.247Z,99.99
2023-02-27T01:25:28.244Z,99.99
2023-02-27T01:26:28.331Z,99.99
2023-02-27T01:27:28.242Z,99.99
2023-02-27T01:28:28.205Z,99.99
2023-02-27T01:29:28.201Z,99.99
2023-02-27T01:30:28.236Z,99.99
2023-02-27T01:31:28.518Z,99.99
2023-02-27T01:32:28.336Z,99.99
2023-02-27T01:33:28.164Z,99.99
2023-02-27T01:34:28.144Z,99.99
2023-02-27T01:35:28.146Z,99.99
2023-02-27T01:36:28.150Z,99.99
2023-02-27T01:37:28.116Z,99.99
2023-02-27T01:38:28.136Z,99.99
2023-02-27T01:39:28.112Z,99.99
2023-02-27T01:40:28.100Z,99.99
2023-02-27T01:41:28.338Z,99.99
2023-02-27T01:42:28.071Z,99.99
2023-02-27T01:43:28.059Z,99.99
2023-02-27T01:44:28.061Z,99.99
2023-02-27T01:45:28.104Z,99.99
2023-02-27T01:46:28.028Z,99.99
2023-02-27T01:47:28.012Z,99.99
2023-02-27T01:48:28.009Z,99.99
2023-02-27T01:49:28.023Z,99.99
2023-02-27T01:50:27.993Z,99.99
2023-02-27T01:51:28.314Z,99.99
2023-02-27T01:52:27.963Z,99.99
2023-02-27T01:53:27.958Z,99.99
2023-02-27T01:54:27.970Z,99.99
2023-02-27T01:55:27.938Z,99.99
2023-02-27T01:56:27.928Z,99.99
2023-02-27T01:57:27.922Z,99.99
2023-02-27T01:58:27.905Z,99.99
2023-02-27T01:59:27.886Z,99.99
2023-02-27T02:00:27.905Z,99.99
2023-02-27T02:01:28.323Z,99.99
2023-02-27T02:02:27.888Z,99.99
2023-02-27T02:03:27.857Z,99.99
2023-02-27T02:04:27.850Z,99.99
2023-02-27T02:05:27.860Z,99.99
2023-02-27T02:06:27.829Z,99.99
2023-02-27T02:07:27.807Z,99.99
2023-02-27T02:08:27.808Z,99.99
2023-02-27T02:09:27.820Z,99.99
2023-02-27T02:10:27.798Z,99.99
2023-02-27T02:11:28.064Z,99.99
2023-02-27T02:12:27.759Z,99.99
2023-02-27T02:13:27.770Z,99.99
2023-02-27T02:14:27.735Z,99.99
2023-02-27T02:15:27.746Z,99.99
2023-02-27T02:16:27.752Z,99.99
2023-02-27T02:17:27.705Z,99.99
2023-02-27T02:18:27.703Z,99.99
2023-02-27T02:19:27.706Z,99.99
2023-02-27T02:20:27.688Z,99.99
2023-02-27T02:21:28.052Z,99.99
2023-02-27T02:22:27.658Z,99.99
2023-02-27T02:23:27.706Z,99.99
2023-02-27T02:24:27.634Z,99.99
2023-02-27T02:25:27.643Z,99.99
2023-02-27T02:26:29.257Z,99.99
2023-02-27T02:27:27.596Z,99.99
2023-02-27T02:28:27.593Z,99.99
2023-02-27T02:29:27.593Z,99.99
2023-02-27T02:30:27.688Z,99.99
2023-02-27T02:31:27.948Z,99.99
2023-02-27T02:32:27.605Z,99.99
2023-02-27T02:33:27.624Z,99.99
2023-02-27T02:34:27.534Z,99.99
2023-02-27T02:35:27.516Z,99.99
2023-02-27T02:36:27.512Z,99.99
2023-02-27T02:37:27.514Z,99.99
2023-02-27T02:38:27.495Z,99.99
2023-02-27T02:39:27.475Z,99.99
2023-02-27T02:40:27.476Z,99.99
2023-02-27T02:41:27.741Z,99.99
2023-02-27T02:42:27.450Z,99.99
2023-02-27T02:43:27.482Z,99.99
2023-02-27T02:44:27.435Z,99.99
2023-02-27T02:45:27.420Z,99.99
2023-02-27T02:46:27.468Z,99.99
2023-02-27T02:47:27.396Z,99.99
2023-02-27T02:48:27.415Z,99.99
2023-02-27T02:49:27.413Z,99.99
2023-02-27T02:50:27.373Z,99.99
2023-02-27T02:51:27.641Z,99.99
2023-02-27T02:52:27.353Z,99.99
2023-02-27T02:53:36.072Z,99.99
2023-02-27T02:54:28.344Z,99.99
2023-02-27T02:55:27.312Z,99.99
2023-02-27T02:56:27.306Z,99.99
2023-02-27T02:57:27.292Z,99.99
2023-02-27T02:58:27.294Z,99.99
2023-02-27T02:59:27.295Z,99.99
2023-02-27T03:00:27.265Z,99.99
2023-02-27T03:01:27.718Z,99.99
2023-02-27T03:02:27.252Z,99.99
2023-02-27T03:03:27.244Z,99.99
2023-02-27T03:04:27.244Z,99.99
2023-02-27T03:05:27.218Z,99.99
2023-02-27T03:06:27.204Z,99.99
2023-02-27T03:07:27.260Z,99.99
2023-02-27T03:08:27.174Z,99.99
2023-02-27T03:09:27.176Z,99.99
2023-02-27T03:10:27.191Z,99.99
2023-02-27T03:11:27.446Z,99.99
2023-02-27T03:12:27.167Z,99.99
2023-02-27T03:13:27.145Z,99.99
2023-02-27T03:14:27.131Z,99.99
2023-02-27T03:15:27.117Z,99.99
2023-02-27T03:16:27.093Z,99.99
2023-02-27T03:17:27.092Z,99.99
2023-02-27T03:18:27.093Z,99.99
2023-02-27T03:19:27.065Z,99.99
2023-02-27T03:20:27.074Z,99.99
2023-02-27T03:21:27.350Z,99.99
2023-02-27T03:22:27.038Z,99.99
2023-02-27T03:23:27.033Z,99.99
2023-02-27T03:24:27.038Z,99.99
2023-02-27T03:25:27.018Z,99.99
2023-02-27T03:26:26.989Z,99.99
2023-02-27T03:27:26.983Z,99.99
2023-02-27T03:28:26.958Z,99.99
2023-02-27T03:29:26.961Z,99.99
2023-02-27T03:30:27.120Z,99.99
2023-02-27T03:31:27.331Z,99.99
2023-02-27T03:32:26.953Z,99.99
2023-02-27T03:33:26.930Z,99.99
2023-02-27T03:34:26.910Z,99.99
2023-02-27T03:35:26.887Z,99.99
2023-02-27T03:36:26.907Z,99.99
2023-02-27T03:37:26.875Z,99.99
2023-02-27T03:38:26.858Z,99.99
2023-02-27T03:39:26.848Z,99.99
2023-02-27T03:40:26.866Z,99.99
2023-02-27T03:41:27.094Z,99.99
2023-02-27T03:42:26.829Z,99.99
2023-02-27T03:43:26.841Z,99.99
2023-02-27T03:44:26.806Z,99.99
2023-02-27T03:45:26.803Z,99.99
2023-02-27T03:46:26.845Z,99.99
2023-02-27T03:47:26.773Z,99.99
2023-02-27T03:48:26.783Z,99.99
2023-02-27T03:49:26.741Z,99.99
2023-02-27T03:50:26.722Z,99.99
2023-02-27T03:51:27.066Z,99.99
2023-02-27T03:52:26.713Z,99.99
2023-02-27T03:53:26.714Z,99.99
2023-02-27T03:54:26.712Z,99.99
2023-02-27T03:55:26.684Z,99.99
2023-02-27T03:56:26.691Z,99.99
2023-02-27T03:57:26.654Z,99.99
2023-02-27T03:58:26.643Z,99.99
2023-02-27T03:59:26.647Z,99.99
2023-02-27T04:00:26.627Z,99.99
2023-02-27T04:01:27.070Z,99.99
2023-02-27T04:02:26.648Z,99.99
2023-02-27T04:03:26.617Z,99.99
2023-02-27T04:04:26.581Z,99.99
2023-02-27T04:05:26.583Z,99.99
2023-02-27T04:06:26.568Z,99.99
2023-02-27T04:07:26.562Z,99.99
2023-02-27T04:08:26.583Z,99.99
2023-02-27T04:09:26.543Z,99.99
2023-02-27T04:10:26.523Z,99.99
2023-02-27T04:11:26.717Z,99.99
2023-02-27T04:12:26.498Z,99.99
2023-02-27T04:13:26.522Z,99.99
2023-02-27T04:14:26.503Z,99.99
2023-02-27T04:15:26.481Z,99.99
2023-02-27T04:16:26.504Z,99.99
2023-02-27T04:17:26.454Z,99.99
2023-02-27T04:18:26.446Z,99.99
2023-02-27T04:19:26.443Z,99.99
2023-02-27T04:20:26.420Z,99.99
2023-02-27T04:21:26.694Z,99.99
2023-02-27T04:22:26.399Z,99.99
2023-02-27T04:23:26.402Z,99.99
2023-02-27T04:24:26.396Z,99.99
2023-02-27T04:25:26.368Z,99.99
2023-02-27T04:26:26.352Z,99.99
2023-02-27T04:27:26.351Z,99.99
2023-02-27T04:28:26.330Z,99.99
2023-02-27T04:29:26.344Z,99.99
2023-02-27T04:30:27.338Z,99.99
2023-02-27T04:31:26.805Z,99.99
2023-02-27T04:32:26.447Z,99.99
2023-02-27T04:33:34.058Z,99.99
2023-02-27T04:34:28.070Z,99.99
2023-02-27T04:35:26.298Z,99.99
2023-02-27T04:36:27.038Z,99.99
2023-02-27T04:37:26.244Z,99.99
2023-02-27T04:38:26.229Z,99.99
2023-02-27T04:39:26.232Z,99.99
2023-02-27T04:40:26.219Z,99.99
2023-02-27T04:41:26.480Z,99.99
2023-02-27T04:42:26.215Z,99.99
2023-02-27T04:43:26.211Z,99.99
2023-02-27T04:44:26.184Z,99.99
2023-02-27T04:45:26.192Z,99.99
2023-02-27T04:46:26.179Z,99.99
2023-02-27T04:47:26.141Z,99.99
2023-02-27T04:48:26.142Z,99.99
2023-02-27T04:49:26.132Z,99.99
2023-02-27T04:50:26.111Z,99.99
2023-02-27T04:51:26.496Z,99.99
2023-02-27T04:52:26.095Z,99.99
2023-02-27T04:53:26.103Z,99.99
2023-02-27T04:54:26.070Z,99.99
2023-02-27T04:55:26.067Z,99.99
2023-02-27T04:56:26.067Z,99.99
2023-02-27T04:57:26.044Z,99.99
2023-02-27T04:58:26.028Z,99.99
2023-02-27T04:59:26.018Z,99.99
2023-02-27T05:00:26.007Z,99.99
2023-02-27T05:01:26.502Z,99.99
2023-02-27T05:02:26.030Z,99.99
2023-02-27T05:03:25.990Z,99.99
2023-02-27T05:04:25.957Z,99.99
2023-02-27T05:05:26.708Z,99.99
2023-02-27T05:06:25.965Z,99.99
2023-02-27T05:07:25.942Z,99.99
2023-02-27T05:08:25.917Z,99.99
2023-02-27T05:09:25.906Z,99.99
2023-02-27T05:10:25.893Z,99.99
2023-02-27T05:11:26.299Z,99.99
2023-02-27T05:12:25.889Z,99.99
2023-02-27T05:13:25.877Z,99.99
2023-02-27T05:14:25.867Z,99.99
2023-02-27T05:15:25.906Z,99.99
2023-02-27T05:16:25.879Z,99.99
2023-02-27T05:17:25.820Z,99.99
2023-02-27T05:18:25.807Z,99.99
2023-02-27T05:19:25.794Z,99.99
2023-02-27T05:20:26.947Z,99.99
2023-02-27T05:21:26.308Z,99.99
2023-02-27T05:22:25.777Z,99.99
2023-02-27T05:23:25.772Z,99.99
2023-02-27T05:24:25.758Z,99.99
2023-02-27T05:25:25.734Z,99.99
2023-02-27T05:26:25.755Z,99.99
2023-02-27T05:27:25.724Z,99.99
2023-02-27T05:28:25.709Z,99.99
2023-02-27T05:29:25.693Z,99.99
2023-02-27T05:30:25.693Z,99.99
2023-02-27T05:31:25.995Z,99.99
2023-02-27T05:32:25.719Z,99.99
2023-02-27T05:33:25.666Z,99.99
2023-02-27T05:34:25.675Z,99.99
2023-02-27T05:35:28.683Z,99.99
2023-02-27T05:36:25.621Z,99.99
2023-02-27T05:37:25.610Z,99.99
2023-02-27T05:38:25.601Z,99.99
2023-02-27T05:39:25.597Z,99.99
2023-02-27T05:40:25.626Z,99.99
2023-02-27T05:41:25.985Z,99.99
2023-02-27T05:42:25.558Z,99.99
2023-02-27T05:43:25.565Z,99.99
2023-02-27T05:44:25.561Z,99.99
2023-02-27T05:45:25.832Z,99.99
2023-02-27T05:46:25.519Z,99.99
2023-02-27T05:47:25.499Z,99.99
2023-02-27T05:48:25.516Z,99.99
2023-02-27T05:49:25.494Z,99.99
2023-02-27T05:50:25.506Z,99.99
2023-02-27T05:51:25.701Z,99.99
2023-02-27T05:52:25.447Z,99.99
2023-02-27T05:53:25.463Z,99.99
2023-02-27T05:54:25.458Z,99.99
2023-02-27T05:55:25.437Z,99.99
2023-02-27T05:56:25.767Z,99.99
2023-02-27T05:57:25.400Z,99.99
2023-02-27T05:58:25.388Z,99.99
2023-02-27T05:59:25.393Z,99.99
2023-02-27T06:00:25.380Z,99.99
2023-02-27T06:01:25.378Z,99.99
2023-02-27T06:02:25.383Z,99.99
2023-02-27T06:03:25.448Z,99.99
2023-02-27T06:04:25.325Z,99.99
2023-02-27T06:05:25.337Z,99.99
2023-02-27T06:06:25.670Z,99.99
2023-02-27T06:07:25.321Z,99.99
2023-02-27T06:08:25.288Z,99.99
2023-02-27T06:09:25.273Z,99.99
2023-02-27T06:10:25.291Z,99.99
2023-02-27T06:11:25.256Z,99.99
2023-02-27T06:12:25.252Z,99.99
2023-02-27T06:13:25.390Z,99.99
2023-02-27T06:14:25.241Z,99.99
2023-02-27T06:15:25.211Z,99.99
2023-02-27T06:16:25.461Z,99.99
2023-02-27T06:17:25.191Z,99.99
2023-02-27T06:18:25.193Z,99.99
2023-02-27T06:19:25.160Z,99.99
2023-02-27T06:20:25.198Z,99.99
2023-02-27T06:21:25.147Z,99.99
2023-02-27T06:22:25.138Z,99.99
2023-02-27T06:23:25.252Z,99.99
2023-02-27T06:24:25.109Z,99.99
2023-02-27T06:25:25.104Z,99.99
2023-02-27T06:26:25.182Z,99.99
2023-02-27T06:27:25.081Z,99.99
2023-02-27T06:28:25.092Z,99.99
2023-02-27T06:29:25.057Z,99.99
2023-02-27T06:30:25.074Z,99.99
2023-02-27T06:31:25.037Z,99.99
2023-02-27T06:32:25.029Z,99.99
2023-02-27T06:33:25.027Z,99.99
2023-02-27T06:34:25.026Z,99.99
2023-02-27T06:35:24.985Z,99.99
2023-02-27T06:36:25.312Z,99.99
2023-02-27T06:37:24.971Z,99.99
2023-02-27T06:38:24.986Z,99.99
2023-02-27T06:39:24.946Z,99.99
2023-02-27T06:40:24.942Z,99.99
2023-02-27T06:41:24.931Z,99.99
2023-02-27T06:42:24.935Z,99.99
2023-02-27T06:43:24.943Z,99.99
2023-02-27T06:44:24.899Z,99.99
2023-02-27T06:45:24.883Z,99.99
2023-02-27T06:46:25.188Z,99.99
2023-02-27T06:47:24.882Z,99.99
2023-02-27T06:48:24.850Z,99.99
2023-02-27T06:49:24.840Z,99.99
2023-02-27T06:50:24.829Z,99.99
2023-02-27T06:51:24.835Z,99.99
2023-02-27T06:52:24.835Z,99.99
2023-02-27T06:53:24.841Z,99.99
2023-02-27T06:54:24.790Z,99.99
2023-02-27T06:55:24.779Z,99.99
2023-02-27T06:56:25.000Z,99.99
2023-02-27T06:57:24.783Z,99.99
2023-02-27T06:58:24.804Z,99.99
2023-02-27T06:59:24.737Z,99.99
2023-02-27T07:00:24.758Z,99.99
2023-02-27T07:01:24.776Z,99.99
2023-02-27T07:02:24.734Z,99.99
2023-02-27T07:03:24.782Z,99.99
2023-02-27T07:04:24.696Z,99.99
2023-02-27T07:05:24.686Z,99.99
2023-02-27T07:07:33.329Z,99.99
2023-02-27T07:07:34.630Z,99.99
2023-02-27T07:08:25.662Z,99.99
2023-02-27T07:09:24.630Z,99.99
2023-02-27T07:10:24.619Z,99.99
2023-02-27T07:11:24.628Z,99.99
2023-02-27T07:12:24.599Z,99.99
2023-02-27T07:13:24.647Z,99.99
2023-02-27T07:14:24.748Z,99.99
2023-02-27T07:15:24.586Z,99.99
2023-02-27T07:16:24.736Z,99.99
2023-02-27T07:17:24.545Z,99.99
2023-02-27T07:18:24.571Z,99.99
2023-02-27T07:19:24.569Z,99.99
2023-02-27T07:20:24.557Z,99.99
2023-02-27T07:21:24.506Z,99.99
2023-02-27T07:22:24.500Z,99.99
2023-02-27T07:23:24.518Z,99.99
2023-02-27T07:24:24.510Z,99.99
2023-02-27T07:25:24.542Z,99.99
2023-02-27T07:26:24.472Z,99.99
2023-02-27T07:27:24.436Z,99.99
2023-02-27T07:28:24.473Z,99.99
2023-02-27T07:29:24.428Z,99.99
2023-02-27T07:30:24.456Z,99.99
2023-02-27T07:31:24.657Z,99.99
2023-02-27T07:32:24.473Z,99.99
2023-02-27T07:33:24.531Z,99.99
2023-02-27T07:34:24.881Z,99.99
2023-02-27T07:35:24.502Z,99.99
2023-02-27T07:36:24.649Z,99.99
2023-02-27T07:37:25.966Z,99.99
2023-02-27T07:38:24.535Z,99.99
2023-02-27T07:39:24.339Z,99.99
2023-02-27T07:40:24.351Z,99.99
2023-02-27T07:41:30.359Z,99.99
2023-02-27T07:42:25.280Z,99.99
2023-02-27T07:43:24.281Z,99.99
2023-02-27T07:44:24.275Z,99.99
2023-02-27T07:45:24.250Z,99.99
2023-02-27T07:46:24.296Z,99.99
2023-02-27T07:47:24.264Z,99.99
2023-02-27T07:48:24.245Z,99.99
2023-02-27T07:49:24.217Z,99.99
2023-02-27T07:50:24.219Z,99.99
2023-02-27T07:51:24.193Z,99.99
2023-02-27T07:52:24.207Z,99.99
2023-02-27T07:53:24.209Z,99.99
2023-02-27T07:54:24.169Z,99.99
2023-02-27T07:55:24.148Z,99.99
2023-02-27T07:56:24.148Z,99.99
2023-02-27T07:57:24.141Z,99.99
2023-02-27T07:58:24.150Z,99.99
2023-02-27T07:59:24.141Z,99.99
2023-02-27T08:00:24.101Z,99.99
2023-02-27T08:01:24.095Z,99.99
2023-02-27T08:02:24.147Z,99.99
2023-02-27T08:03:24.093Z,99.99
2023-02-27T08:04:24.131Z,99.99
2023-02-27T08:05:24.054Z,99.99
2023-02-27T08:06:24.038Z,99.99
2023-02-27T08:07:24.022Z,99.99
2023-02-27T08:08:24.039Z,99.99
2023-02-27T08:09:24.025Z,99.99
2023-02-27T08:10:24.027Z,99.99
2023-02-27T08:11:24.018Z,99.91
2023-02-27T08:12:23.985Z,99.49
2023-02-27T08:13:55.790Z,99.18
2023-02-27T08:14:24.951Z,98.86
2023-02-27T08:15:23.952Z,98.55
2023-02-27T08:16:24.008Z,98.39
2023-02-27T08:17:23.922Z,98.39
2023-02-27T08:18:23.911Z,98.19
2023-02-27T08:19:23.926Z,98.19
2023-02-27T08:20:23.921Z,98.19
2023-02-27T08:21:23.886Z,98.04
2023-02-27T08:22:23.873Z,97.83
2023-02-27T08:23:23.885Z,97.62
2023-02-27T08:24:23.851Z,97.47
2023-02-27T08:25:23.844Z,97.47
2023-02-27T08:26:23.859Z,97.22
2023-02-27T08:27:23.820Z,97.01
2023-02-27T08:28:23.813Z,96.70
2023-02-27T08:29:23.789Z,96.38
2023-02-27T08:30:23.780Z,96.23
2023-02-27T08:31:23.825Z,96.03
2023-02-27T08:32:23.876Z,95.82
2023-02-27T08:33:23.768Z,95.82
2023-02-27T08:34:23.732Z,95.61
2023-02-27T08:35:23.735Z,95.36
2023-02-27T08:36:23.714Z,95.04
2023-02-27T08:37:23.708Z,94.63
2023-02-27T08:38:26.057Z,94.31
2023-02-27T08:39:23.679Z,94.21
2023-02-27T08:40:23.669Z,94.00
2023-02-27T08:41:23.655Z,94.10
2023-02-27T08:42:25.441Z,93.85
2023-02-27T08:43:23.690Z,93.75
2023-02-27T08:44:23.647Z,93.02
2023-02-27T08:45:23.621Z,92.40
2023-02-27T08:46:23.595Z,92.08
2023-02-27T08:47:23.604Z,92.08
2023-02-27T08:48:23.587Z,92.18
2023-02-27T08:49:23.567Z,91.83
2023-02-27T08:50:23.592Z,91.41
2023-02-27T08:51:23.588Z,91.41
2023-02-27T08:52:25.001Z,91.31
2023-02-27T08:53:23.533Z,91.10
2023-02-27T08:54:23.506Z,90.85
2023-02-27T08:55:23.505Z,90.85
2023-02-27T08:56:23.514Z,90.85
2023-02-27T08:57:23.520Z,90.85
2023-02-27T08:58:23.465Z,90.64
2023-02-27T08:59:23.453Z,90.29
2023-02-27T09:00:23.514Z,89.98
2023-02-27T09:01:23.488Z,89.98
2023-02-27T09:02:23.444Z,89.76
2023-02-27T09:03:23.453Z,89.25
2023-02-27T09:04:23.405Z,88.93
2023-02-27T09:05:23.394Z,88.58
2023-02-27T09:06:25.912Z,88.58
2023-02-27T09:07:23.393Z,88.17
2023-02-27T09:08:23.387Z,87.75
2023-02-27T09:09:23.376Z,87.81
2023-02-27T09:10:23.448Z,87.81
2023-02-27T09:11:23.325Z,87.50
2023-02-27T09:12:23.316Z,87.25
2023-02-27T09:13:23.413Z,87.04
2023-02-27T09:14:23.295Z,87.04
2023-02-27T09:15:23.291Z,86.83
2023-02-27T09:16:23.388Z,86.59
2023-02-27T09:17:23.265Z,86.07
2023-02-27T09:18:23.306Z,85.55
2023-02-27T09:19:23.269Z,85.24
2023-02-27T09:20:23.260Z,84.99
2023-02-27T09:21:23.224Z,84.68
2023-02-27T09:22:23.271Z,84.89
2023-02-27T09:23:23.309Z,84.68
2023-02-27T09:24:23.218Z,84.53
2023-02-27T09:25:23.188Z,84.33
2023-02-27T09:26:39.364Z,83.91
2023-02-27T09:27:24.180Z,83.87
2023-02-27T09:28:23.217Z,83.63
2023-02-27T09:29:23.144Z,83.22
2023-02-27T09:30:23.164Z,82.45
2023-02-27T09:31:23.131Z,81.10
2023-02-27T09:32:23.269Z,80.44
2023-02-27T09:33:23.097Z,79.88
2023-02-27T09:34:23.096Z,79.54
2023-02-27T09:35:23.101Z,78.67
2023-02-27T09:36:23.063Z,78.33
2023-02-27T09:37:23.057Z,78.08
2023-02-27T09:38:23.048Z,77.36
2023-02-27T09:39:23.035Z,76.50
2023-02-27T09:40:23.111Z,75.53
2023-02-27T09:41:23.044Z,74.67
2023-02-27T09:42:23.001Z,73.81
2023-02-27T09:43:23.029Z,73.57
2023-02-27T09:44:33.411Z,72.92
2023-02-27T09:45:23.966Z,72.88
2023-02-27T09:46:22.967Z,72.13
2023-02-27T09:47:22.976Z,71.41
2023-02-27T09:48:22.941Z,70.04
2023-02-27T09:49:22.947Z,69.70
2023-02-27T09:50:22.937Z,69.15
2023-02-27T09:51:22.960Z,69.12
2023-02-27T09:52:22.912Z,68.46
2023-02-27T09:53:22.919Z,67.61
2023-02-27T09:54:22.878Z,66.76
2023-02-27T09:55:22.856Z,65.50
2023-02-27T09:56:22.847Z,64.64
2023-02-27T09:57:22.834Z,64.54
2023-02-27T09:58:22.851Z,63.49
2023-02-27T09:59:22.826Z,63.15
2023-02-27T10:00:22.810Z,62.88
2023-02-27T10:01:22.810Z,61.45
2023-02-27T10:02:22.789Z,61.11
2023-02-27T10:03:22.962Z,60.06
2023-02-27T10:04:22.768Z,59.45
2023-02-27T10:05:22.755Z,58.50
2023-02-27T10:06:22.746Z,58.40
2023-02-27T10:07:22.738Z,57.97
2023-02-27T10:08:22.744Z,57.53
2023-02-27T10:09:22.718Z,57.70
2023-02-27T10:10:22.697Z,56.35
2023-02-27T10:11:22.689Z,55.84
2023-02-27T10:12:22.682Z,55.74
2023-02-27T10:13:22.669Z,55.00
2023-02-27T10:14:22.675Z,54.64
2023-02-27T10:15:22.649Z,54.77
2023-02-27T10:16:22.678Z,55.15
2023-02-27T10:17:22.703Z,54.49
2023-02-27T10:18:27.639Z,54.59
2023-02-27T10:19:23.620Z,54.94
2023-02-27T10:20:22.600Z,54.51
2023-02-27T10:21:22.596Z,53.55
2023-02-27T10:22:22.573Z,53.02
2023-02-27T10:23:22.573Z,52.48
2023-02-27T10:24:22.586Z,51.23
2023-02-27T10:25:31.246Z,50.70
2023-02-27T10:26:23.522Z,50.68
2023-02-27T10:27:22.525Z,50.04
2023-02-27T10:28:22.508Z,49.74
2023-02-27T10:29:22.520Z,48.52
2023-02-27T10:30:29.307Z,48.52
2023-02-27T10:31:23.529Z,48.71
2023-02-27T10:32:22.493Z,48.27
2023-02-27T10:33:22.460Z,47.49
2023-02-27T10:34:30.232Z,47.46
2023-02-27T10:35:24.249Z,47.56
2023-02-27T10:36:32.892Z,48.05
2023-02-27T10:37:23.437Z,47.22
2023-02-27T10:38:22.400Z,46.51
2023-02-27T10:39:22.641Z,46.30
2023-02-27T10:40:22.371Z,46.20
2023-02-27T10:41:22.361Z,45.50
2023-02-27T10:42:22.354Z,46.59
2023-02-27T10:43:22.372Z,48.76
2023-02-27T10:44:22.347Z,50.59
2023-02-27T10:45:22.321Z,49.22
2023-02-27T10:46:22.347Z,50.29
2023-02-27T10:47:22.328Z,50.24
2023-02-27T10:48:22.287Z,49.18
2023-02-27T10:49:22.290Z,48.52
2023-02-27T10:50:22.269Z,47.46
2023-02-27T10:51:22.258Z,46.33
2023-02-27T10:52:22.240Z,45.21
2023-02-27T10:53:22.269Z,45.09
2023-02-27T10:54:22.215Z,45.21
2023-02-27T10:55:22.221Z,46.76
2023-02-27T10:56:22.196Z,48.36
2023-02-27T10:57:22.208Z,47.59
2023-02-27T10:58:22.182Z,46.33
2023-02-27T10:59:22.168Z,45.78
2023-02-27T11:00:22.175Z,45.19
2023-02-27T11:01:22.158Z,46.09
2023-02-27T11:02:22.149Z,47.63
2023-02-27T11:03:22.121Z,47.80
2023-02-27T11:04:22.128Z,49.52
2023-02-27T11:05:22.097Z,51.43
2023-02-27T11:06:22.086Z,51.97
2023-02-27T11:07:22.108Z,50.04
2023-02-27T11:08:22.058Z,48.94
2023-02-27T11:09:22.065Z,50.08
2023-02-27T11:10:22.047Z,51.65
2023-02-27T11:11:22.026Z,52.85
2023-02-27T11:12:22.020Z,54.10
2023-02-27T11:13:22.036Z,55.05
2023-02-27T11:14:21.996Z,55.62
2023-02-27T11:15:22.030Z,55.94
2023-02-27T11:16:21.972Z,56.67
2023-02-27T11:17:21.966Z,55.13
2023-02-27T11:18:21.975Z,54.97
2023-02-27T11:19:21.970Z,56.18
2023-02-27T11:20:21.929Z,57.23
2023-02-27T11:21:21.926Z,58.11
2023-02-27T11:22:21.911Z,59.16
2023-02-27T11:23:21.910Z,58.98
2023-02-27T11:24:21.889Z,59.28
2023-02-27T11:25:21.916Z,56.18
2023-02-27T11:26:21.882Z,55.10
2023-02-27T11:27:21.870Z,53.14
2023-02-27T11:28:21.856Z,51.79
2023-02-27T11:29:21.868Z,49.35
2023-02-27T11:30:21.824Z,48.24
2023-02-27T11:31:21.892Z,46.29
2023-02-27T11:32:21.838Z,46.63
2023-02-27T11:33:21.797Z,45.45
2023-02-27T11:34:21.786Z,43.93
2023-02-27T11:35:21.803Z,45.98
2023-02-27T11:36:21.807Z,47.39
2023-02-27T11:37:21.760Z,48.68
2023-02-27T11:38:21.736Z,50.77
2023-02-27T11:39:21.738Z,51.15
2023-02-27T11:40:21.716Z,51.78
2023-02-27T11:41:21.744Z,51.98
2023-02-27T11:42:21.695Z,53.44
2023-02-27T11:43:21.687Z,53.90
2023-02-27T11:44:38.339Z,54.44
2023-02-27T11:46:05.052Z,55.00
2023-02-27T11:46:47.829Z,56.77
2023-02-27T11:47:22.675Z,57.61
2023-02-27T11:48:21.639Z,57.61
2023-02-27T11:49:21.633Z,57.84
2023-02-27T11:50:21.618Z,58.46
2023-02-27T11:51:21.611Z,58.36
2023-02-27T11:52:21.610Z,58.80
2023-02-27T11:53:21.583Z,58.72
2023-02-27T11:54:21.560Z,59.31
2023-02-27T11:55:21.557Z,56.10
2023-02-27T11:56:21.549Z,53.67
2023-02-27T11:57:21.562Z,51.10
2023-02-27T11:58:21.539Z,48.67
2023-02-27T11:59:21.522Z,46.35
2023-02-27T12:00:21.510Z,45.47
2023-02-27T12:01:21.491Z,43.91
2023-02-27T12:02:21.561Z,43.14
2023-02-27T12:03:21.493Z,41.97
2023-02-27T12:04:21.517Z,41.13
2023-02-27T12:05:21.454Z,39.96
2023-02-27T12:06:21.431Z,38.81
2023-02-27T12:07:21.479Z,38.20
2023-02-27T12:08:21.413Z,37.69
2023-02-27T12:09:21.423Z,36.89
2023-02-27T12:10:21.394Z,37.19
2023-02-27T12:11:21.386Z,36.47
2023-02-27T12:12:21.370Z,36.35
2023-02-27T12:13:21.384Z,36.33
2023-02-27T12:14:21.354Z,35.63
2023-02-27T12:15:21.352Z,35.31
2023-02-27T12:16:21.382Z,35.41
2023-02-27T12:17:21.326Z,35.21
2023-02-27T12:18:21.314Z,34.89
2023-02-27T12:19:21.314Z,34.38
2023-02-27T12:20:21.306Z,34.01
2023-02-27T12:21:21.285Z,34.81
2023-02-27T12:22:21.274Z,34.91
2023-02-27T12:23:21.276Z,34.11
2023-02-27T12:24:21.258Z,34.09
2023-02-27T12:25:21.234Z,34.08
2023-02-27T12:26:21.218Z,34.21
2023-02-27T12:27:21.210Z,34.19
2023-02-27T12:28:21.239Z,34.19
2023-02-27T12:29:21.188Z,33.81
2023-02-27T12:30:21.188Z,34.31
2023-02-27T12:31:21.174Z,34.09
2023-02-27T12:32:21.201Z,34.29
2023-02-27T12:33:21.160Z,33.79
2023-02-27T12:34:21.211Z,34.17
2023-02-27T12:35:21.128Z,33.07
2023-02-27T12:36:21.115Z,33.81
2023-02-27T12:37:21.096Z,34.19
2023-02-27T12:38:21.086Z,33.87
2023-02-27T12:39:21.102Z,33.86
2023-02-27T12:40:21.066Z,33.74
2023-02-27T12:41:21.083Z,33.53
2023-02-27T12:42:21.045Z,33.14
2023-02-27T12:43:21.028Z,34.31
2023-02-27T12:44:21.018Z,36.20
2023-02-27T12:45:21.009Z,36.89
2023-02-27T12:46:20.986Z,38.23
2023-02-27T12:47:21.020Z,40.33
2023-02-27T12:48:20.969Z,41.72
2023-02-27T12:49:20.968Z,42.43
2023-02-27T12:50:20.949Z,41.00
2023-02-27T12:51:20.958Z,39.98
2023-02-27T12:52:20.926Z,41.14